createdAt,value
2018-10-09T00:00:14.191Z,76.41
2018-10-09T00:02:41.841Z,76.27
2018-10-09T00:05:09.548Z,76.52
2018-10-09T00:07:37.251Z,76.59
2018-10-09T00:10:04.978Z,77.02
2018-10-09T00:12:32.626Z,76.99
2018-10-09T00:15:00.346Z,76.20
2018-10-09T00:17:27.984Z,76.14
2018-10-09T00:19:55.650Z,75.48
2018-10-09T00:22:23.615Z,75.80
2018-10-09T00:24:51.244Z,75.77
2018-10-09T00:27:18.882Z,76.32
2018-10-09T00:29:46.509Z,76.06
2018-10-09T00:32:14.153Z,77.08
2018-10-09T00:34:41.767Z,76.87
2018-10-09T00:37:09.437Z,76.53
2018-10-09T00:39:37.070Z,76.02
2018-10-09T00:42:04.707Z,76.04
2018-10-09T00:44:32.357Z,75.99
2018-10-09T00:47:00.195Z,76.46
2018-10-09T00:49:27.798Z,76.50
2018-10-09T00:51:55.465Z,77.66
2018-10-09T00:54:23.593Z,77.17
2018-10-09T00:56:51.306Z,77.48
2018-10-09T00:59:18.983Z,77.33
2018-10-09T01:01:46.826Z,77.29
2018-10-09T01:04:14.510Z,77.67
2018-10-09T01:06:42.099Z,77.85
2018-10-09T01:09:09.762Z,77.56
2018-10-09T01:11:37.410Z,76.83
2018-10-09T01:14:05.093Z,77.08
2018-10-09T01:16:32.696Z,76.42
2018-10-09T01:19:00.333Z,75.69
2018-10-09T01:21:28.033Z,75.26
2018-10-09T01:23:55.810Z,73.54
2018-10-09T01:26:23.444Z,73.54
2018-10-09T01:28:51.087Z,73.42
2018-10-09T01:31:18.696Z,73.36
2018-10-09T01:33:46.328Z,72.99
2018-10-09T01:36:14.090Z,72.82
2018-10-09T01:38:41.744Z,72.94
2018-10-09T01:41:09.377Z,72.50
2018-10-09T01:43:37.100Z,72.55
2018-10-09T01:46:04.782Z,72.70
2018-10-09T01:48:32.468Z,72.44
2018-10-09T01:51:00.158Z,72.68
2018-10-09T01:53:27.778Z,72.14
2018-10-09T01:55:55.444Z,72.82
2018-10-09T01:58:23.149Z,73.18
2018-10-09T02:00:50.838Z,73.30
2018-10-09T02:03:18.475Z,73.14
2018-10-09T02:05:46.161Z,73.79
2018-10-09T02:08:13.909Z,73.95
2018-10-09T02:10:41.635Z,73.80
2018-10-09T02:13:09.280Z,73.85
2018-10-09T02:15:36.915Z,73.84
2018-10-09T02:18:04.600Z,73.27
2018-10-09T02:20:32.287Z,73.68
2018-10-09T02:22:59.905Z,73.33
2018-10-09T02:25:27.541Z,73.70
2018-10-09T02:27:55.255Z,75.04
2018-10-09T02:30:22.949Z,74.52
2018-10-09T02:32:50.666Z,75.53
2018-10-09T02:35:18.363Z,75.93
2018-10-09T02:37:46.259Z,76.08
2018-10-09T02:40:13.900Z,75.80
2018-10-09T02:42:41.561Z,75.59
2018-10-09T02:45:09.268Z,75.71
2018-10-09T02:47:37.121Z,76.38
2018-10-09T02:50:05.472Z,75.85
2018-10-09T02:52:33.161Z,75.95
2018-10-09T02:55:00.924Z,75.73
2018-10-09T02:57:28.892Z,75.98
2018-10-09T02:59:56.771Z,76.33
2018-10-09T03:02:24.393Z,76.71
2018-10-09T03:04:52.038Z,77.27
2018-10-09T03:07:20.148Z,76.65
2018-10-09T03:09:47.844Z,76.00
2018-10-09T03:12:15.544Z,76.69
2018-10-09T03:14:43.250Z,76.39
2018-10-09T03:17:10.933Z,76.39
2018-10-09T03:19:38.660Z,76.48
2018-10-09T03:22:06.340Z,76.55
2018-10-09T03:24:34.062Z,77.41
2018-10-09T03:27:01.723Z,76.87
2018-10-09T03:29:29.401Z,77.40
2018-10-09T03:31:57.116Z,77.66
2018-10-09T03:34:24.782Z,77.54
2018-10-09T03:36:52.510Z,77.74
2018-10-09T03:39:20.209Z,78.30
2018-10-09T03:41:47.906Z,78.30
2018-10-09T03:44:15.881Z,77.74
2018-10-09T03:46:43.561Z,77.70
2018-10-09T03:49:11.227Z,78.33
2018-10-09T03:51:38.870Z,77.86
2018-10-09T03:54:06.593Z,77.53
2018-10-09T03:56:34.304Z,77.83
2018-10-09T03:59:02.112Z,78.41
2018-10-09T04:01:29.777Z,77.57
2018-10-09T04:03:57.813Z,76.91
2018-10-09T04:06:25.536Z,76.24
2018-10-09T04:08:53.228Z,77.00
2018-10-09T04:11:20.936Z,77.41
2018-10-09T04:13:48.664Z,77.16
2018-10-09T04:16:16.339Z,77.19
2018-10-09T04:18:44.044Z,77.02
2018-10-09T04:21:11.737Z,77.84
2018-10-09T04:23:39.756Z,78.53
2018-10-09T04:26:08.090Z,78.66
2018-10-09T04:28:35.769Z,78.57
2018-10-09T04:31:03.550Z,78.95
2018-10-09T04:33:31.400Z,78.40
2018-10-09T04:35:59.105Z,77.82
2018-10-09T04:38:26.840Z,78.64
2018-10-09T04:40:54.484Z,78.51
2018-10-09T04:43:22.162Z,78.33
2018-10-09T04:45:49.807Z,79.28
2018-10-09T04:48:17.414Z,78.79
2018-10-09T04:50:45.048Z,78.39
2018-10-09T04:53:12.712Z,78.27
2018-10-09T04:55:40.209Z,77.91
2018-10-09T04:58:07.829Z,78.08
2018-10-09T05:00:35.521Z,78.01
2018-10-09T05:03:03.173Z,78.38
2018-10-09T05:05:30.819Z,77.64
2018-10-09T05:07:58.495Z,77.60
2018-10-09T05:10:26.189Z,77.73
2018-10-09T05:12:53.827Z,78.49
2018-10-09T05:15:21.447Z,79.08
2018-10-09T05:17:49.206Z,78.80
2018-10-09T05:20:16.825Z,79.25
2018-10-09T05:22:44.457Z,79.27
2018-10-09T05:25:12.197Z,79.62
2018-10-09T05:27:39.883Z,79.57
2018-10-09T05:30:07.523Z,79.70
2018-10-09T05:32:35.073Z,79.44
2018-10-09T05:35:02.760Z,78.62
2018-10-09T05:37:30.419Z,78.23
2018-10-09T05:39:58.080Z,78.94
2018-10-09T05:42:25.685Z,78.94
2018-10-09T05:44:54.107Z,78.61
2018-10-09T05:47:21.776Z,78.46
2018-10-09T05:49:49.460Z,78.25
2018-10-09T05:52:17.305Z,77.11
2018-10-09T05:54:44.962Z,77.15
2018-10-09T05:57:12.639Z,76.59
2018-10-09T05:59:40.272Z,76.03
2018-10-09T06:02:08.604Z,76.83
2018-10-09T06:04:36.468Z,75.89
2018-10-09T06:07:04.086Z,75.92
2018-10-09T06:09:31.708Z,75.81
2018-10-09T06:11:59.258Z,75.69
2018-10-09T06:14:26.876Z,75.01
2018-10-09T06:16:54.601Z,75.14
2018-10-09T06:19:22.293Z,74.28
2018-10-09T06:21:50.033Z,73.78
2018-10-09T06:24:18.037Z,73.51
2018-10-09T06:26:45.801Z,73.06
2018-10-09T06:29:13.568Z,72.58
2018-10-09T06:31:41.294Z,72.48
2018-10-09T06:34:09.097Z,71.74
2018-10-09T06:36:36.827Z,71.55
2018-10-09T06:39:07.143Z,71.88
2018-10-09T06:41:34.779Z,72.15
2018-10-09T06:44:02.476Z,71.70
2018-10-09T06:46:30.160Z,71.27
2018-10-09T06:48:57.800Z,70.15
2018-10-09T06:51:25.742Z,68.72
2018-10-09T06:53:53.575Z,68.58
2018-10-09T06:56:21.129Z,67.61
2018-10-09T06:58:48.811Z,67.39
2018-10-09T07:01:16.474Z,65.50
2018-10-09T07:03:44.170Z,65.23
2018-10-09T07:06:11.837Z,65.22
2018-10-09T07:08:39.494Z,64.50
2018-10-09T07:11:07.291Z,63.12
2018-10-09T07:13:34.923Z,61.66
2018-10-09T07:16:02.555Z,60.76
2018-10-09T07:18:30.173Z,59.28
2018-10-09T07:20:57.854Z,58.28
2018-10-09T07:23:25.601Z,59.11
2018-10-09T07:25:53.341Z,60.18
2018-10-09T07:28:21.159Z,59.79
2018-10-09T07:30:48.831Z,58.69
2018-10-09T07:33:16.689Z,58.18
2018-10-09T07:35:44.421Z,58.70
2018-10-09T07:38:12.050Z,59.33
2018-10-09T07:40:39.721Z,59.01
2018-10-09T07:43:07.648Z,60.35
2018-10-09T07:45:35.345Z,60.87
2018-10-09T07:48:03.012Z,60.42
2018-10-09T07:50:30.740Z,60.93
2018-10-09T07:52:58.695Z,60.14
2018-10-09T07:55:26.317Z,60.08
2018-10-09T07:57:54.016Z,59.66
2018-10-09T08:00:21.900Z,59.01
2018-10-09T08:02:49.530Z,58.24
2018-10-09T08:05:17.288Z,58.20
2018-10-09T08:07:44.974Z,57.88
2018-10-09T08:10:12.710Z,57.10
2018-10-09T08:12:47.313Z,55.37
2018-10-09T08:15:15.597Z,54.88
2018-10-09T08:17:43.250Z,54.38
2018-10-09T08:20:10.945Z,54.29
2018-10-09T08:22:38.717Z,54.05
2018-10-09T08:25:06.345Z,55.08
2018-10-09T08:27:33.993Z,54.04
2018-10-09T08:30:01.661Z,53.75
2018-10-09T08:32:29.257Z,54.36
2018-10-09T08:34:56.886Z,53.69
2018-10-09T08:37:24.501Z,52.91
2018-10-09T08:39:52.117Z,53.65
2018-10-09T08:42:19.713Z,53.32
2018-10-09T08:44:47.350Z,52.99
2018-10-09T08:47:15.150Z,52.51
2018-10-09T08:49:42.764Z,52.64
2018-10-09T08:52:10.405Z,51.12
2018-10-09T08:54:37.990Z,51.62
2018-10-09T08:57:05.680Z,50.67
2018-10-09T08:59:33.266Z,50.11
2018-10-09T09:02:00.910Z,49.14
2018-10-09T09:04:28.564Z,49.02
2018-10-09T09:06:56.202Z,48.11
2018-10-09T09:09:23.929Z,48.25
2018-10-09T09:11:51.568Z,47.85
2018-10-09T09:14:19.231Z,47.90
2018-10-09T09:16:46.906Z,46.04
2018-10-09T09:19:14.573Z,45.72
2018-10-09T09:21:42.358Z,45.06
2018-10-09T09:24:09.996Z,45.61
2018-10-09T09:26:37.743Z,45.94
2018-10-09T09:29:05.312Z,46.19
2018-10-09T09:31:32.988Z,45.48
2018-10-09T09:34:00.660Z,45.16
2018-10-09T09:36:28.293Z,44.24
2018-10-09T09:38:55.893Z,44.64
2018-10-09T09:41:23.545Z,43.76
2018-10-09T09:43:51.187Z,44.18
2018-10-09T09:46:19.039Z,45.75
2018-10-09T09:48:46.640Z,44.48
2018-10-09T09:51:14.319Z,44.51
2018-10-09T09:53:41.917Z,43.52
2018-10-09T09:56:09.525Z,43.32
2018-10-09T09:58:37.417Z,41.87
2018-10-09T10:01:07.043Z,42.31
2018-10-09T10:03:35.442Z,42.38
2018-10-09T10:06:03.141Z,42.64
2018-10-09T10:08:30.779Z,42.36
2018-10-09T10:10:58.438Z,42.46
2018-10-09T10:13:26.079Z,43.00
2018-10-09T10:15:53.746Z,42.49
2018-10-09T10:18:21.437Z,43.93
2018-10-09T10:20:49.128Z,44.66
2018-10-09T10:23:23.640Z,45.54
2018-10-09T10:25:51.353Z,45.59
2018-10-09T10:28:19.007Z,45.79
2018-10-09T10:30:46.701Z,45.08
2018-10-09T10:33:14.677Z,44.77
2018-10-09T10:35:42.540Z,43.51
2018-10-09T10:38:10.204Z,43.12
2018-10-09T10:40:37.940Z,43.33
2018-10-09T10:43:05.790Z,43.51
2018-10-09T10:45:33.486Z,42.66
2018-10-09T10:48:01.273Z,43.32
2018-10-09T10:50:28.994Z,43.70
2018-10-09T10:52:56.611Z,44.52
2018-10-09T10:55:24.261Z,44.35
2018-10-09T10:57:51.973Z,43.40
2018-10-09T11:00:19.677Z,43.02
2018-10-09T11:02:47.457Z,43.08
2018-10-09T11:05:14.988Z,41.25
2018-10-09T11:07:42.629Z,40.98
2018-10-09T11:10:10.293Z,39.17
2018-10-09T11:12:37.966Z,36.60
2018-10-09T11:15:05.752Z,36.16
2018-10-09T11:17:33.488Z,34.62
2018-10-09T11:20:01.159Z,32.95
2018-10-09T11:22:28.788Z,30.61
2018-10-09T11:24:56.541Z,28.34
2018-10-09T11:27:24.244Z,28.16
2018-10-09T11:29:51.902Z,26.43
2018-10-09T11:32:19.683Z,28.22
2018-10-09T11:34:47.262Z,30.51
2018-10-09T11:37:14.928Z,30.32
2018-10-09T11:39:42.598Z,27.31
2018-10-09T11:42:10.301Z,25.06
2018-10-09T11:44:37.935Z,21.84
2018-10-09T11:47:05.633Z,20.18
2018-10-09T11:49:33.307Z,19.75
2018-10-09T11:52:00.953Z,18.03
2018-10-09T11:54:28.561Z,17.55
2018-10-09T11:56:56.225Z,17.22
2018-10-09T11:59:23.872Z,17.05
2018-10-09T12:01:51.521Z,16.55
2018-10-09T12:04:20.043Z,16.67
2018-10-09T12:06:47.753Z,16.17
2018-10-09T12:09:15.363Z,15.94
2018-10-09T12:11:42.977Z,16.00
2018-10-09T12:14:11.514Z,15.32
2018-10-09T12:16:39.278Z,15.73
2018-10-09T12:19:06.986Z,14.62
2018-10-09T12:21:35.323Z,14.45
2018-10-09T12:24:03.049Z,13.71
2018-10-09T12:26:30.790Z,15.32
2018-10-09T12:28:58.511Z,15.74
2018-10-09T12:31:26.168Z,14.87
2018-10-09T12:33:54.240Z,15.38
2018-10-09T12:36:21.902Z,15.03
2018-10-09T12:38:49.734Z,14.42
2018-10-09T12:41:17.350Z,14.77
2018-10-09T12:43:45.270Z,16.10
2018-10-09T12:46:13.216Z,16.24
2018-10-09T12:48:40.890Z,16.93
2018-10-09T12:51:08.704Z,16.38
2018-10-09T12:53:36.443Z,17.78
2018-10-09T12:56:04.397Z,17.73
2018-10-09T12:58:32.148Z,18.05
2018-10-09T13:00:59.812Z,17.49
2018-10-09T13:03:27.470Z,18.06
2018-10-09T13:05:55.157Z,17.92
2018-10-09T13:08:22.820Z,18.37
2018-10-09T13:10:50.932Z,18.34
2018-10-09T13:13:18.626Z,17.50
2018-10-09T13:15:46.280Z,16.79
2018-10-09T13:18:13.965Z,16.33
2018-10-09T13:20:41.653Z,16.75
2018-10-09T13:23:09.397Z,16.31
2018-10-09T13:25:37.079Z,16.29
2018-10-09T13:28:04.769Z,16.50
2018-10-09T13:30:32.453Z,15.78
2018-10-09T13:33:00.133Z,15.77
2018-10-09T13:35:27.827Z,15.59
2018-10-09T13:37:55.559Z,15.20
2018-10-09T13:40:23.191Z,15.04
2018-10-09T13:42:50.895Z,16.13
2018-10-09T13:45:18.701Z,16.24
2018-10-09T13:47:46.414Z,16.04
2018-10-09T13:50:14.143Z,14.59
2018-10-09T13:52:41.779Z,15.62
2018-10-09T13:55:09.422Z,15.64
2018-10-09T13:57:37.334Z,15.31
2018-10-09T14:00:05.073Z,15.75
2018-10-09T14:02:32.720Z,14.83
2018-10-09T14:05:00.368Z,13.94
2018-10-09T14:07:27.950Z,14.89
2018-10-09T14:09:55.672Z,15.43
2018-10-09T14:12:23.322Z,15.64
2018-10-09T14:14:52.529Z,14.38
2018-10-09T14:17:20.157Z,14.61
2018-10-09T14:19:47.806Z,15.35
2018-10-09T14:22:15.497Z,14.99
2018-10-09T14:24:43.145Z,15.79
2018-10-09T14:27:10.812Z,15.30
2018-10-09T14:29:38.484Z,15.25
2018-10-09T14:32:06.250Z,15.70
2018-10-09T14:34:33.923Z,16.37
2018-10-09T14:37:01.631Z,17.23
2018-10-09T14:39:29.241Z,17.36
2018-10-09T14:41:56.865Z,17.13
2018-10-09T14:44:24.557Z,16.42
2018-10-09T14:46:52.244Z,17.34
2018-10-09T14:49:19.922Z,17.25
2018-10-09T14:51:47.553Z,18.99
2018-10-09T14:54:15.231Z,19.54
2018-10-09T14:56:42.909Z,19.78
2018-10-09T14:59:10.622Z,21.33
2018-10-09T15:01:38.363Z,21.85
2018-10-09T15:04:06.523Z,23.21
2018-10-09T15:06:34.191Z,23.09
2018-10-09T15:09:01.939Z,24.16
2018-10-09T15:11:29.669Z,25.94
2018-10-09T15:13:57.421Z,26.94
2018-10-09T15:16:25.095Z,27.64
2018-10-09T15:18:52.910Z,28.85
2018-10-09T15:21:20.587Z,30.50
2018-10-09T15:23:48.364Z,32.15
2018-10-09T15:26:16.048Z,32.11
2018-10-09T15:28:43.666Z,34.00
2018-10-09T15:31:11.358Z,33.71
2018-10-09T15:33:38.939Z,35.52
2018-10-09T15:36:06.678Z,36.36
2018-10-09T15:38:34.364Z,36.26
2018-10-09T15:41:02.176Z,36.58
2018-10-09T15:43:29.774Z,37.70
2018-10-09T15:45:57.499Z,37.63
2018-10-09T15:48:25.158Z,39.35
2018-10-09T15:50:52.882Z,41.22
2018-10-09T15:53:20.672Z,42.26
2018-10-09T15:55:48.386Z,43.06
2018-10-09T15:58:16.052Z,43.90
2018-10-09T16:00:43.836Z,45.06
2018-10-09T16:03:11.795Z,45.07
2018-10-09T16:05:39.612Z,45.29
2018-10-09T16:08:07.348Z,46.43
2018-10-09T16:10:35.125Z,47.60
2018-10-09T16:13:02.989Z,47.88
2018-10-09T16:15:30.849Z,48.31
2018-10-09T16:17:58.518Z,48.40
2018-10-09T16:20:26.252Z,49.14
2018-10-09T16:22:54.489Z,49.66
2018-10-09T16:25:22.210Z,50.19
2018-10-09T16:27:49.889Z,50.41
2018-10-09T16:30:17.593Z,50.11
2018-10-09T16:32:45.506Z,50.88
2018-10-09T16:35:13.351Z,50.28
2018-10-09T16:37:45.313Z,50.58
2018-10-09T16:40:13.183Z,50.67
2018-10-09T16:42:41.149Z,51.73
2018-10-09T16:45:09.107Z,51.89
2018-10-09T16:47:36.838Z,51.97
2018-10-09T16:50:04.603Z,53.10
2018-10-09T16:52:32.275Z,53.56
2018-10-09T16:54:59.973Z,53.92
2018-10-09T16:57:27.745Z,54.66
2018-10-09T16:59:55.506Z,55.61
2018-10-09T17:02:23.385Z,56.46
2018-10-09T17:04:51.150Z,56.21
2018-10-09T17:07:19.241Z,56.03
2018-10-09T17:09:46.872Z,56.97
2018-10-09T17:12:14.602Z,57.32
2018-10-09T17:14:42.420Z,57.31
2018-10-09T17:17:10.253Z,57.69
2018-10-09T17:19:38.040Z,58.14
2018-10-09T17:22:05.811Z,57.75
2018-10-09T17:24:33.623Z,57.67
2018-10-09T17:27:01.263Z,57.55
2018-10-09T17:29:29.020Z,58.61
2018-10-09T17:31:56.666Z,58.79
2018-10-09T17:34:24.401Z,58.95
2018-10-09T17:36:52.137Z,58.99
2018-10-09T17:39:19.835Z,58.86
2018-10-09T17:41:47.466Z,59.31
2018-10-09T17:44:15.161Z,59.23
2018-10-09T17:46:42.900Z,59.57
2018-10-09T17:49:10.510Z,59.63
2018-10-09T17:51:38.168Z,60.01
2018-10-09T17:54:05.847Z,60.74
2018-10-09T17:56:33.548Z,61.09
2018-10-09T17:59:01.224Z,61.59
2018-10-09T18:01:28.968Z,61.77
2018-10-09T18:03:56.666Z,62.94
2018-10-09T18:06:24.470Z,63.06
2018-10-09T18:08:52.250Z,63.48
2018-10-09T18:11:19.852Z,63.78
2018-10-09T18:13:47.590Z,64.08
2018-10-09T18:16:15.414Z,64.85
2018-10-09T18:18:43.388Z,64.58
2018-10-09T18:21:11.203Z,64.85
2018-10-09T18:23:38.988Z,65.23
2018-10-09T18:26:06.739Z,65.75
2018-10-09T18:28:34.693Z,65.16
2018-10-09T18:31:02.415Z,65.44
2018-10-09T18:33:30.353Z,66.43
2018-10-09T18:35:58.073Z,66.69
2018-10-09T18:38:25.781Z,66.74
2018-10-09T18:40:53.780Z,67.96
2018-10-09T18:43:21.416Z,68.51
2018-10-09T18:45:49.234Z,68.69
2018-10-09T18:48:16.911Z,68.60
2018-10-09T18:50:44.718Z,69.62
2018-10-09T18:53:12.409Z,69.07
2018-10-09T18:55:40.221Z,69.88
2018-10-09T18:58:07.933Z,69.71
2018-10-09T19:00:35.731Z,70.36
2018-10-09T19:03:03.435Z,70.21
2018-10-09T19:05:31.231Z,70.45
2018-10-09T19:07:59.004Z,70.40
2018-10-09T19:10:26.929Z,70.50
2018-10-09T19:12:54.638Z,70.37
2018-10-09T19:15:22.426Z,70.31
2018-10-09T19:17:50.314Z,70.55
2018-10-09T19:20:18.009Z,69.79
2018-10-09T19:22:45.795Z,70.39
2018-10-09T19:25:13.642Z,70.00
2018-10-09T19:27:41.471Z,70.18
2018-10-09T19:30:09.353Z,69.95
2018-10-09T19:32:37.321Z,70.40
2018-10-09T19:35:05.245Z,70.77
2018-10-09T19:37:32.976Z,71.21
2018-10-09T19:40:00.737Z,71.51
2018-10-09T19:42:28.490Z,71.72
2018-10-09T19:44:56.109Z,71.12
2018-10-09T19:47:23.820Z,71.90
2018-10-09T19:49:51.717Z,71.58
2018-10-09T19:52:19.414Z,71.32
2018-10-09T19:54:47.068Z,71.32
2018-10-09T19:57:14.788Z,70.51
2018-10-09T19:59:42.559Z,70.22
2018-10-09T20:02:10.271Z,69.99
2018-10-09T20:04:38.231Z,70.22
2018-10-09T20:07:06.073Z,70.35
2018-10-09T20:09:33.792Z,70.13
2018-10-09T20:12:01.561Z,70.31
2018-10-09T20:14:29.265Z,69.86
2018-10-09T20:16:56.941Z,69.80
2018-10-09T20:19:24.731Z,69.16
2018-10-09T20:21:52.367Z,69.15
2018-10-09T20:24:20.033Z,68.72
2018-10-09T20:26:47.766Z,68.77
2018-10-09T20:29:15.442Z,68.56
2018-10-09T20:31:43.110Z,69.22
2018-10-09T20:34:10.824Z,69.24
2018-10-09T20:36:38.578Z,70.09
2018-10-09T20:39:07.042Z,70.33
2018-10-09T20:41:34.780Z,70.43
2018-10-09T20:44:02.742Z,70.91
2018-10-09T20:46:30.488Z,70.91
2018-10-09T20:48:58.746Z,71.16
2018-10-09T20:51:27.860Z,71.48
2018-10-09T20:53:55.684Z,71.58
2018-10-09T20:56:23.564Z,72.08
2018-10-09T20:58:51.345Z,72.63
2018-10-09T21:01:19.177Z,72.41
2018-10-09T21:03:47.040Z,72.58
2018-10-09T21:06:14.899Z,72.84
2018-10-09T21:08:42.749Z,73.23
2018-10-09T21:11:10.461Z,72.61
2018-10-09T21:13:38.176Z,72.87
2018-10-09T21:16:06.245Z,73.14
2018-10-09T21:18:33.865Z,72.92
2018-10-09T21:21:01.583Z,73.55
2018-10-09T21:23:29.375Z,73.29
2018-10-09T21:25:57.349Z,72.97
2018-10-09T21:28:25.097Z,72.84
2018-10-09T21:30:52.954Z,73.26
2018-10-09T21:33:20.714Z,73.61
2018-10-09T21:35:48.665Z,73.89
2018-10-09T21:38:16.311Z,74.06
2018-10-09T21:40:44.040Z,74.07
2018-10-09T21:43:11.746Z,73.75
2018-10-09T21:45:39.707Z,73.57
2018-10-09T21:48:07.496Z,74.32
2018-10-09T21:50:35.186Z,74.29
2018-10-09T21:53:02.872Z,73.61
2018-10-09T21:55:30.520Z,74.30
2018-10-09T21:57:58.438Z,74.22
2018-10-09T22:00:26.300Z,74.21
2018-10-09T22:02:54.003Z,74.46
2018-10-09T22:05:21.708Z,74.68
2018-10-09T22:07:49.452Z,74.80
2018-10-09T22:10:17.129Z,74.86
2018-10-09T22:12:44.727Z,74.38
2018-10-09T22:15:12.590Z,74.87
2018-10-09T22:17:40.387Z,74.86
2018-10-09T22:20:08.024Z,74.19
2018-10-09T22:22:35.716Z,74.84
2018-10-09T22:25:03.527Z,74.90
2018-10-09T22:27:31.290Z,74.98
2018-10-09T22:29:59.159Z,74.71
2018-10-09T22:32:26.848Z,74.80
2018-10-09T22:34:54.650Z,75.01
2018-10-09T22:37:22.286Z,75.17
2018-10-09T22:39:49.931Z,75.07
2018-10-09T22:42:17.552Z,75.53
2018-10-09T22:44:45.184Z,75.38
2018-10-09T22:47:12.854Z,74.24
2018-10-09T22:49:40.567Z,73.90
2018-10-09T22:52:08.250Z,73.89
2018-10-09T22:54:35.918Z,74.28
2018-10-09T22:59:45.431Z,74.29
2018-10-09T23:02:13.073Z,74.48
2018-10-09T23:04:40.669Z,74.26
2018-10-09T23:07:08.339Z,74.48
2018-10-09T23:09:35.946Z,74.44
2018-10-09T23:12:03.594Z,74.98
2018-10-09T23:14:31.255Z,75.38
2018-10-09T23:16:58.933Z,75.30
2018-10-09T23:19:26.596Z,75.15
2018-10-09T23:21:54.248Z,75.08
2018-10-09T23:24:21.957Z,74.13
2018-10-09T23:26:49.657Z,74.04
2018-10-09T23:29:17.311Z,74.48
2018-10-09T23:31:44.970Z,74.46
2018-10-09T23:34:12.693Z,74.68
2018-10-09T23:36:40.445Z,75.04
2018-10-09T23:39:08.617Z,74.83
2018-10-09T23:41:36.270Z,75.07
2018-10-09T23:44:04.011Z,75.45
2018-10-09T23:46:31.707Z,75.08
2018-10-09T23:48:59.471Z,74.83
2018-10-09T23:51:27.222Z,75.22
2018-10-09T23:53:54.879Z,75.48
2018-10-09T23:56:22.532Z,75.70
2018-10-09T23:58:50.201Z,75.36
